Time;durP1;ratioP1;P1;durP2;ratioP2;P2;SDS_P1;SDS_P2;PMS_P1;PMS_P2;Temp;Humidity;BMP_temperature;BMP_pressure;BME280_temperature;BME280_humidity;BME280_pressure;Samples;Min_cycle;Max_cycle;Signal;HPM_P1;HPM_P2
2022/07/14 00:01:00;;;;;;;9.68;3.58;;;;;;;18.63;100.00;102059.97;5258956;28;20074;-71
2022/07/14 00:03:31;;;;;;;15.07;4.40;;;;;;;18.59;100.00;102054.06;5234960;28;20429;-71
2022/07/14 00:06:02;;;;;;;9.90;4.57;;;;;;;18.55;100.00;102049.19;5259522;28;20032;-71
2022/07/14 00:08:32;;;;;;;9.02;3.83;;;;;;;18.50;100.00;102055.19;5254149;28;20025;-71
2022/07/14 00:11:03;;;;;;;12.80;3.70;;;;;;;18.50;100.00;102055.19;5258883;28;20036;-71
2022/07/14 00:13:34;;;;;;;12.05;3.65;;;;;;;18.50;100.00;102043.50;5258168;28;20056;-71
2022/07/14 00:16:05;;;;;;;10.23;3.88;;;;;;;18.48;100.00;102051.00;5245607;28;20021;-71
2022/07/14 00:18:43;;;;;;;14.32;3.72;;;;;;;18.48;100.00;102076.31;5259160;28;20028;-71
2022/07/14 00:21:14;;;;;;;14.45;4.20;;;;;;;18.54;100.00;102075.53;5249036;28;20482;-71
2022/07/14 00:23:46;;;;;;;13.77;3.60;;;;;;;18.51;100.00;102083.22;5258690;28;20024;-71
2022/07/14 00:26:17;;;;;;;11.32;3.30;;;;;;;18.45;100.00;102098.41;5243500;28;20036;-71
2022/07/14 00:28:47;;;;;;;15.60;3.53;;;;;;;18.45;100.00;102101.13;5262519;28;20045;-71
2022/07/14 00:31:18;;;;;;;12.55;3.70;;;;;;;18.46;100.00;102113.66;5254155;28;20033;-71
2022/07/14 00:33:48;;;;;;;15.18;3.67;;;;;;;18.40;100.00;102124.44;5263622;28;20035;-71
2022/07/14 00:36:19;;;;;;;13.48;4.00;;;;;;;18.35;100.00;102131.28;5265516;28;20024;-71
2022/07/14 00:38:49;;;;;;;13.05;4.07;;;;;;;18.40;100.00;102110.88;5258954;28;20111;-71
2022/07/14 00:41:20;;;;;;;10.25;3.38;;;;;;;18.34;100.00;102088.00;5248219;28;20025;-71
2022/07/14 00:43:51;;;;;;;9.25;3.38;;;;;;;18.35;100.00;102084.25;5247051;28;20020;-71
2022/07/14 00:46:21;;;;;;;12.55;3.67;;;;;;;18.33;100.00;102073.59;5263299;28;20349;-71
2022/07/14 00:48:52;;;;;;;12.90;4.13;;;;;;;18.30;100.00;102065.81;5258099;28;20427;-71
2022/07/14 00:51:22;;;;;;;14.48;4.30;;;;;;;18.24;100.00;102063.84;5252520;28;20028;-71
2022/07/14 00:56:39;;;;;;;19.10;5.20;;;;;;;18.15;100.00;102045.09;5256765;28;20028;-71
2022/07/14 00:59:11;;;;;;;6.82;3.72;;;;;;;18.09;100.00;102052.97;5248240;28;20025;-72
2022/07/14 01:01:41;;;;;;;14.05;4.05;;;;;;;18.01;100.00;102068.50;5248406;28;20025;-72
2022/07/14 01:04:12;;;;;;;15.05;5.45;;;;;;;17.79;100.00;102062.94;5234514;28;20368;-72
2022/07/14 01:06:42;;;;;;;20.77;4.20;;;;;;;17.61;100.00;102041.53;5248481;28;20020;-72
2022/07/14 01:09:13;;;;;;;18.27;4.85;;;;;;;17.51;100.00;102035.53;5265121;28;20400;-72
2022/07/14 01:11:43;;;;;;;18.27;5.00;;;;;;;17.45;100.00;102036.25;5269160;28;20022;-72
2022/07/14 01:14:14;;;;;;;13.00;5.15;;;;;;;17.43;100.00;102046.47;5250891;28;20029;-72
2022/07/14 01:16:45;;;;;;;13.85;4.90;;;;;;;17.40;100.00;102048.69;5248605;28;20027;-72
2022/07/14 01:19:16;;;;;;;16.52;6.05;;;;;;;17.32;100.00;102042.31;5253846;28;20035;-72
2022/07/14 01:21:46;;;;;;;10.73;5.03;;;;;;;17.26;100.00;102051.16;5248121;28;20016;-71
2022/07/14 01:24:17;;;;;;;13.10;4.97;;;;;;;17.28;100.00;102057.25;5234613;28;20382;-72
2022/07/14 01:26:48;;;;;;;14.52;5.45;;;;;;;17.36;100.00;102069.91;5263058;28;20031;-71
2022/07/14 01:29:19;;;;;;;19.92;5.13;;;;;;;17.28;100.00;102078.13;5268590;28;20039;-71
2022/07/14 01:31:50;;;;;;;11.25;5.18;;;;;;;17.21;100.00;102091.53;5264506;28;20111;-72
2022/07/14 01:34:20;;;;;;;9.23;5.07;;;;;;;17.16;100.00;102083.09;5247436;28;20103;-71
2022/07/14 01:36:52;;;;;;;17.30;5.38;;;;;;;17.12;100.00;102097.19;5251798;28;20024;-72
2022/07/14 01:39:24;;;;;;;11.25;4.75;;;;;;;17.05;100.00;102092.47;5268771;28;20063;-72
2022/07/14 01:41:54;;;;;;;20.90;6.15;;;;;;;17.03;100.00;102069.31;5268593;28;20501;-72
2022/07/14 01:44:25;;;;;;;14.20;5.10;;;;;;;16.98;100.00;102058.16;5267887;28;20508;-72
2022/07/14 01:46:59;;;;;;;14.05;5.45;;;;;;;17.00;100.00;102056.09;5261456;28;20021;-72
2022/07/14 01:49:29;;;;;;;11.38;5.32;;;;;;;17.00;100.00;102040.66;5261247;28;20027;-72
2022/07/14 01:52:05;;;;;;;15.45;5.22;;;;;;;17.00;100.00;102054.22;5247859;28;20034;-72
2022/07/14 01:54:36;;;;;;;20.77;5.13;;;;;;;17.04;100.00;102049.28;5249987;28;20103;-72
2022/07/14 01:57:07;;;;;;;11.80;4.55;;;;;;;17.01;100.00;102045.06;5262513;28;20031;-72
2022/07/14 01:59:37;;;;;;;16.75;5.25;;;;;;;16.99;100.00;102051.69;5250378;28;20024;-72
2022/07/14 02:02:08;;;;;;;12.18;5.30;;;;;;;16.97;100.00;102051.88;5258635;28;20020;-72
2022/07/14 02:04:40;;;;;;;19.98;5.35;;;;;;;16.97;100.00;102045.63;5240665;28;20028;-72
2022/07/14 02:07:11;;;;;;;19.23;6.00;;;;;;;16.93;100.00;102055.13;5267416;28;20085;-72
2022/07/14 02:12:33;;;;;;;15.73;5.07;;;;;;;17.01;100.00;102060.47;5249652;28;20039;-72
2022/07/14 02:15:04;;;;;;;18.38;4.85;;;;;;;16.90;100.00;102048.19;5246791;28;20386;-72
2022/07/14 02:17:35;;;;;;;12.82;5.10;;;;;;;16.85;100.00;102044.34;5246978;28;20546;-72
2022/07/14 02:20:08;;;;;;;17.15;6.10;;;;;;;16.80;100.00;102031.31;5246220;28;20418;-72
2022/07/14 02:22:39;;;;;;;18.52;6.60;;;;;;;16.79;100.00;102022.34;5246702;28;20024;-72
2022/07/14 02:25:12;;;;;;;15.98;5.40;;;;;;;16.76;100.00;102016.44;5260055;28;20028;-72
2022/07/14 02:27:43;;;;;;;19.00;5.47;;;;;;;16.76;100.00;102019.13;5247008;28;20027;-72
2022/07/14 02:30:14;;;;;;;14.00;5.15;;;;;;;16.77;100.00;102015.44;5263518;28;20024;-72
2022/07/14 02:32:45;;;;;;;13.27;5.10;;;;;;;16.78;100.00;101995.44;5267705;28;20024;-72
2022/07/14 02:35:16;;;;;;;17.23;5.10;;;;;;;16.79;100.00;101992.53;5267442;28;20500;-72
2022/07/14 02:37:46;;;;;;;16.30;5.68;;;;;;;16.81;100.00;101989.63;5255559;28;20038;-72
2022/07/14 02:40:17;;;;;;;17.05;4.90;;;;;;;16.81;100.00;101993.19;5246288;28;20041;-72
2022/07/14 02:42:47;;;;;;;18.13;5.05;;;;;;;16.86;100.00;102008.06;5246151;28;20031;-72
2022/07/14 02:45:18;;;;;;;20.98;5.63;;;;;;;16.82;100.00;102002.19;5246148;28;20020;-72
2022/07/14 02:47:49;;;;;;;18.58;5.38;;;;;;;16.74;100.00;101999.50;5250074;28;20390;-72
2022/07/14 02:50:20;;;;;;;16.02;4.53;;;;;;;16.68;100.00;102000.19;5257328;28;20021;-72
2022/07/14 02:52:50;;;;;;;16.75;5.05;;;;;;;16.62;100.00;101993.63;5262315;28;20020;-72
2022/07/14 02:55:21;;;;;;;14.30;5.28;;;;;;;16.56;100.00;102006.00;5265426;28;20020;-72
2022/07/14 02:57:52;;;;;;;18.27;4.95;;;;;;;16.54;100.00;102001.78;5250169;28;20020;-72
2022/07/14 03:00:23;;;;;;;19.67;5.25;;;;;;;16.51;100.00;102013.81;5256053;28;20108;-72
2022/07/14 03:02:54;;;;;;;19.50;5.30;;;;;;;16.48;100.00;102022.31;5240423;28;20112;-71
2022/07/14 03:05:24;;;;;;;16.38;5.57;;;;;;;16.47;100.00;102030.63;5250292;28;20027;-72
2022/07/14 03:07:55;;;;;;;17.90;5.00;;;;;;;16.44;100.00;102036.38;5246212;28;20039;-72
2022/07/14 03:10:25;;;;;;;14.80;5.65;;;;;;;16.39;100.00;102036.06;5259478;28;20016;-72
2022/07/14 03:12:56;;;;;;;16.77;5.07;;;;;;;16.33;100.00;102042.19;5245846;28;20064;-72
2022/07/14 03:15:26;;;;;;;14.85;5.03;;;;;;;16.28;100.00;102051.69;5259045;28;20024;-72
2022/07/14 03:17:57;;;;;;;22.95;6.03;;;;;;;16.29;100.00;102056.06;5254831;28;20027;-72
2022/07/14 03:20:28;;;;;;;18.63;6.18;;;;;;;16.27;100.00;102049.16;5259088;28;20528;-72
2022/07/14 03:22:58;;;;;;;19.17;5.63;;;;;;;16.25;100.00;102046.59;5253466;28;20102;-72
2022/07/14 03:25:29;;;;;;;10.57;4.43;;;;;;;16.23;100.00;102036.97;5249547;28;20424;-72
2022/07/14 03:28:00;;;;;;;13.65;4.30;;;;;;;16.20;100.00;102034.59;5254773;28;20032;-71
2022/07/14 03:30:30;;;;;;;25.67;4.95;;;;;;;16.12;100.00;102030.06;5245831;28;20020;-72
2022/07/14 03:33:01;;;;;;;20.63;5.65;;;;;;;16.08;100.00;102028.72;5258432;28;20134;-72
2022/07/14 03:35:32;;;;;;;14.90;5.25;;;;;;;16.06;100.00;102025.34;5252619;28;20126;-72
2022/07/14 03:38:02;;;;;;;19.33;5.20;;;;;;;16.06;100.00;102019.91;5252097;28;20418;-72
2022/07/14 03:40:33;;;;;;;17.15;5.22;;;;;;;16.05;100.00;102012.81;5253816;28;20028;-72
2022/07/14 03:43:03;;;;;;;11.63;5.00;;;;;;;16.05;100.00;101993.88;5264076;28;20604;-72
2022/07/14 03:45:34;;;;;;;19.50;5.13;;;;;;;16.05;100.00;102013.66;5245184;28;20017;-72
2022/07/14 03:48:07;;;;;;;17.48;5.93;;;;;;;16.05;100.00;101999.28;5250308;28;20016;-72
2022/07/14 03:50:38;;;;;;;21.95;6.20;;;;;;;16.07;100.00;102009.97;5266376;28;20550;-72
2022/07/14 03:53:08;;;;;;;17.13;5.30;;;;;;;16.08;100.00;102007.06;5251403;28;20024;-72
2022/07/14 03:55:39;;;;;;;19.27;4.93;;;;;;;16.09;100.00;102002.50;5253126;28;20085;-72
2022/07/14 03:58:09;;;;;;;18.50;5.05;;;;;;;16.07;100.00;101989.16;5245247;28;20021;-72
2022/07/14 04:00:40;;;;;;;23.63;4.45;;;;;;;16.09;100.00;101992.53;5259100;28;20028;-72
2022/07/14 04:03:11;;;;;;;15.60;4.30;;;;;;;16.11;100.00;101998.59;5231805;28;20024;-71
2022/07/14 04:05:43;;;;;;;18.45;4.95;;;;;;;16.16;100.00;101990.78;5246283;28;20027;-72
2022/07/14 04:08:14;;;;;;;18.67;4.50;;;;;;;16.21;100.00;101996.53;5257107;28;20021;-72
2022/07/14 04:10:44;;;;;;;18.80;5.38;;;;;;;16.25;100.00;101992.44;5248111;28;20023;-72
2022/07/14 04:13:15;;;;;;;16.30;3.78;;;;;;;16.28;100.00;101993.97;5256882;28;20482;-72
2022/07/14 04:15:46;;;;;;;14.07;4.38;;;;;;;16.34;100.00;101995.13;5262441;28;20021;-72
2022/07/14 04:18:16;;;;;;;16.55;4.38;;;;;;;16.36;100.00;101988.50;5260316;28;20434;-72
2022/07/14 04:20:48;;;;;;;22.42;5.00;;;;;;;16.37;100.00;101990.22;5255954;28;20347;-72
2022/07/14 04:23:19;;;;;;;20.10;4.05;;;;;;;16.39;100.00;101995.44;5254173;28;20051;-72
2022/07/14 04:25:50;;;;;;;20.40;5.15;;;;;;;16.37;100.00;102001.03;5248719;28;20403;-71
2022/07/14 04:28:20;;;;;;;19.67;4.25;;;;;;;16.38;100.00;101999.19;5262643;28;20512;-72
2022/07/14 04:30:51;;;;;;;15.32;4.30;;;;;;;16.34;100.00;101995.97;5262507;28;20044;-71
2022/07/14 04:33:22;;;;;;;22.48;4.95;;;;;;;16.32;100.00;101995.31;5248514;28;20024;-72
2022/07/14 04:35:52;;;;;;;19.83;5.07;;;;;;;16.28;100.00;102000.22;5257530;28;20016;-71
2022/07/14 04:38:25;;;;;;;15.77;4.85;;;;;;;16.27;100.00;102000.41;5256617;28;20027;-72
2022/07/14 04:40:56;;;;;;;18.75;5.18;;;;;;;16.27;100.00;101993.13;5259492;28;20028;-72
2022/07/14 04:43:26;;;;;;;19.10;5.00;;;;;;;16.30;100.00;101995.47;5266382;28;20034;-72
2022/07/14 04:45:57;;;;;;;14.38;4.60;;;;;;;16.33;100.00;102010.53;5257620;28;20028;-72
2022/07/14 04:48:27;;;;;;;21.77;5.55;;;;;;;16.36;100.00;101998.50;5255129;28;20028;-72
2022/07/14 04:53:47;;;;;;;17.45;4.97;;;;;;;16.46;100.00;102001.81;5260103;28;20032;-72
2022/07/14 04:56:17;;;;;;;17.75;4.43;;;;;;;16.49;100.00;102004.19;5251026;28;20418;-72
2022/07/14 04:58:48;;;;;;;20.20;4.57;;;;;;;16.53;100.00;102008.25;5269463;28;20024;-72
2022/07/14 05:01:19;;;;;;;24.50;4.38;;;;;;;16.60;100.00;102011.91;5269324;28;20035;-72
2022/07/14 05:03:49;;;;;;;14.30;4.70;;;;;;;16.67;100.00;102018.31;5243377;28;20033;-72
2022/07/14 05:06:20;;;;;;;17.30;4.53;;;;;;;16.77;100.00;102026.28;5254314;28;20024;-72
2022/07/14 05:08:50;;;;;;;17.80;4.25;;;;;;;16.81;100.00;102024.88;5254625;28;20032;-72
2022/07/14 05:11:21;;;;;;;19.98;3.50;;;;;;;16.83;100.00;102017.41;5256486;28;20020;-71
2022/07/14 05:13:53;;;;;;;22.85;4.75;;;;;;;16.90;100.00;102017.53;5266735;28;20110;-71
2022/07/14 05:16:23;;;;;;;17.08;4.00;;;;;;;16.95;100.00;102015.97;5248302;28;20066;-72
2022/07/14 05:18:54;;;;;;;16.85;4.22;;;;;;;16.99;100.00;102014.59;5251022;28;20028;-71
2022/07/14 05:21:24;;;;;;;23.63;4.68;;;;;;;17.04;100.00;102022.19;5261681;28;20084;-72
2022/07/14 05:23:55;;;;;;;20.27;4.28;;;;;;;17.03;100.00;102025.94;5248016;28;20024;-72
2022/07/14 05:26:25;;;;;;;17.80;4.90;;;;;;;17.06;100.00;102022.84;5247149;28;20032;-72
2022/07/14 05:28:56;;;;;;;17.40;4.18;;;;;;;17.11;100.00;102031.28;5253830;28;20028;-72
2022/07/14 05:31:26;;;;;;;19.80;4.88;;;;;;;17.16;100.00;102025.31;5268550;28;20020;-72
2022/07/14 05:33:57;;;;;;;18.02;4.85;;;;;;;17.19;100.00;102023.09;5241980;28;20040;-71
2022/07/14 05:36:27;;;;;;;14.43;4.57;;;;;;;17.21;100.00;102026.44;5254723;28;20031;-71
2022/07/14 05:38:58;;;;;;;21.55;5.45;;;;;;;17.18;100.00;102032.25;5259760;28;20028;-72
2022/07/14 05:41:28;;;;;;;20.08;4.68;;;;;;;17.22;100.00;102030.00;5263825;28;20046;-72
2022/07/14 05:43:59;;;;;;;22.27;4.53;;;;;;;17.22;100.00;102028.16;5268039;28;20411;-72
2022/07/14 05:46:29;;;;;;;20.95;5.32;;;;;;;17.20;100.00;102035.63;5264031;28;20032;-71
2022/07/14 05:49:00;;;;;;;16.65;4.45;;;;;;;17.24;100.00;102030.69;5258648;28;20024;-72
2022/07/14 05:51:31;;;;;;;21.70;5.00;;;;;;;17.37;100.00;102030.06;5263725;28;20286;-72
2022/07/14 05:54:01;;;;;;;24.88;5.43;;;;;;;17.44;100.00;102026.44;5247146;28;20132;-72
2022/07/14 05:56:31;;;;;;;19.50;4.57;;;;;;;17.54;100.00;102029.75;5246492;28;20024;-72
2022/07/14 05:59:02;;;;;;;18.88;4.82;;;;;;;17.66;100.00;102023.88;5247100;28;20025;-72
2022/07/14 06:01:33;;;;;;;15.35;4.45;;;;;;;17.86;100.00;102035.91;5247299;28;20036;-72
2022/07/14 06:04:04;;;;;;;19.67;4.43;;;;;;;18.21;100.00;102037.03;5246740;28;20025;-72
2022/07/14 06:06:35;;;;;;;16.35;4.32;;;;;;;18.77;100.00;102026.50;5246956;28;20024;-72
2022/07/14 06:09:05;;;;;;;14.80;4.25;;;;;;;19.52;100.00;102027.84;5260016;28;20023;-72
2022/07/14 06:11:36;;;;;;;15.88;4.32;;;;;;;20.17;100.00;102015.75;5247118;28;20474;-72
2022/07/14 06:14:07;;;;;;;14.23;4.20;;;;;;;20.84;100.00;102019.66;5247064;28;20032;-72
2022/07/14 06:16:39;;;;;;;14.63;4.13;;;;;;;21.44;100.00;102036.13;5246852;28;20056;-72
2022/07/14 06:19:10;;;;;;;16.23;3.50;;;;;;;22.20;100.00;102031.03;5260192;28;20035;-72
2022/07/14 06:21:40;;;;;;;13.93;4.65;;;;;;;22.41;100.00;102029.91;5246280;28;20473;-72
2022/07/14 06:24:12;;;;;;;15.95;3.75;;;;;;;22.97;100.00;102020.16;5266546;28;20017;-72
2022/07/14 06:26:43;;;;;;;14.30;3.75;;;;;;;23.21;100.00;102018.53;5253196;28;20079;-72
2022/07/14 06:29:13;;;;;;;14.55;3.40;;;;;;;23.13;100.00;102024.28;5255127;28;20028;-72
2022/07/14 06:31:44;;;;;;;15.07;3.42;;;;;;;22.56;100.00;102018.69;5264948;28;20020;-72
2022/07/14 06:34:15;;;;;;;21.08;3.80;;;;;;;22.17;100.00;102022.41;5256341;28;20024;-72
2022/07/14 06:36:45;;;;;;;19.25;4.43;;;;;;;21.82;100.00;102025.38;5262920;28;20031;-72
2022/07/14 06:39:15;;;;;;;19.10;4.57;;;;;;;21.41;100.00;102018.28;5244946;28;20023;-72
2022/07/14 06:41:46;;;;;;;16.10;3.97;;;;;;;21.19;100.00;102025.78;5246241;28;20523;-72
2022/07/14 06:44:17;;;;;;;18.20;3.67;;;;;;;20.93;100.00;102023.00;5245830;28;20036;-72
2022/07/14 06:46:48;;;;;;;18.45;3.88;;;;;;;20.66;100.00;102019.38;5262180;28;20078;-72
2022/07/14 06:49:18;;;;;;;18.52;3.47;;;;;;;20.50;100.00;102022.47;5259563;28;20020;-72
2022/07/14 06:51:48;;;;;;;16.15;3.50;;;;;;;20.80;100.00;102015.66;5246421;28;20470;-72
2022/07/14 06:54:19;;;;;;;15.57;3.30;;;;;;;21.16;100.00;102009.00;5247471;28;20478;-72
2022/07/14 06:56:49;;;;;;;16.73;3.55;;;;;;;21.71;100.00;102017.84;5253012;28;20077;-72
2022/07/14 06:59:20;;;;;;;14.35;3.25;;;;;;;22.49;100.00;102016.00;5245980;28;20035;-72
2022/07/14 07:01:50;;;;;;;14.50;3.38;;;;;;;22.33;100.00;102010.16;5246017;28;20020;-72
2022/07/14 07:04:21;;;;;;;19.75;3.80;;;;;;;22.35;100.00;102011.63;5235949;28;20065;-72
2022/07/14 07:06:52;;;;;;;16.08;3.70;;;;;;;22.71;100.00;102002.00;5255885;28;20025;-72
2022/07/14 07:09:22;;;;;;;16.95;3.85;;;;;;;23.11;100.00;102005.34;5250570;28;20024;-72
2022/07/14 07:11:53;;;;;;;21.55;4.07;;;;;;;23.15;100.00;102014.78;5254803;28;20043;-72
2022/07/14 07:14:24;;;;;;;18.17;3.70;;;;;;;23.09;100.00;102023.03;5252214;28;20020;-72
2022/07/14 07:16:54;;;;;;;14.32;3.00;;;;;;;23.55;100.00;102033.66;5252970;28;20031;-72
2022/07/14 07:19:26;;;;;;;12.95;3.03;;;;;;;24.01;100.00;102027.75;5252139;28;20027;-72
2022/07/14 07:21:57;;;;;;;13.63;2.95;;;;;;;24.59;100.00;102025.63;5245030;28;20024;-72
2022/07/14 07:24:27;;;;;;;17.95;3.63;;;;;;;24.90;100.00;102008.06;5254597;28;20035;-72
2022/07/14 07:26:58;;;;;;;16.00;3.15;;;;;;;25.35;100.00;102013.94;5263187;28;20028;-73
2022/07/14 07:29:29;;;;;;;16.95;3.30;;;;;;;25.73;100.00;102015.41;5245830;28;20028;-72
2022/07/14 07:32:00;;;;;;;14.02;3.70;;;;;;;26.02;100.00;102006.22;5245548;28;20021;-72
2022/07/14 07:34:31;;;;;;;14.93;2.80;;;;;;;25.98;98.88;102012.44;5244960;28;20012;-72
2022/07/14 07:37:01;;;;;;;9.10;2.60;;;;;;;26.26;100.00;102006.19;5251435;28;20031;-70
2022/07/14 07:39:34;;;;;;;17.50;3.33;;;;;;;26.44;97.44;102003.28;5253405;28;20027;-70
2022/07/14 07:42:04;;;;;;;10.50;3.03;;;;;;;26.58;96.42;102012.94;5253036;28;20378;-70
2022/07/14 07:44:36;;;;;;;15.60;3.10;;;;;;;26.76;88.93;102003.66;5252450;28;20095;-70
2022/07/14 07:47:06;;;;;;;12.88;3.00;;;;;;;26.75;85.50;102004.72;5257240;28;20021;-70
2022/07/14 07:49:37;;;;;;;14.85;3.28;;;;;;;26.48;86.40;102001.72;5251917;28;20031;-72
2022/07/14 07:52:07;;;;;;;10.38;2.63;;;;;;;26.39;87.88;102002.31;5263321;28;20024;-72
2022/07/14 07:54:38;;;;;;;12.10;3.15;;;;;;;26.52;88.93;101997.41;5265563;28;20035;-72
2022/07/14 07:57:08;;;;;;;13.38;2.65;;;;;;;26.37;83.44;101999.81;5262003;28;20500;-72
2022/07/14 07:59:39;;;;;;;11.02;2.80;;;;;;;26.60;86.63;101993.41;5272782;28;20110;-73
2022/07/14 08:02:09;;;;;;;14.65;3.17;;;;;;;26.71;84.41;101989.78;5273395;28;20020;-72
2022/07/14 08:04:40;;;;;;;11.25;2.95;;;;;;;26.76;81.96;101983.53;5239415;28;20027;-73
2022/07/14 08:07:10;;;;;;;16.77;2.75;;;;;;;27.13;85.57;101977.63;5266109;28;20026;-73
2022/07/14 08:09:41;;;;;;;14.02;2.80;;;;;;;27.63;85.04;101967.38;5252034;28;20028;-73
2022/07/14 08:12:12;;;;;;;10.18;2.28;;;;;;;28.02;74.92;101972.94;5253095;28;20050;-73
2022/07/14 08:17:31;;;;;;;10.07;2.38;;;;;;;28.04;73.29;101961.63;5256601;28;20039;-73
2022/07/14 08:20:02;;;;;;;14.43;2.63;;;;;;;28.35;70.70;101960.94;5260818;28;20490;-73
2022/07/14 08:22:33;;;;;;;10.63;2.65;;;;;;;28.08;68.43;101958.09;5257663;28;20027;-73
2022/07/14 08:25:07;;;;;;;11.75;2.60;;;;;;;27.66;67.72;101956.94;5272310;28;20055;-73
2022/07/14 08:27:38;;;;;;;13.90;2.50;;;;;;;26.93;71.49;101959.63;5252041;28;20244;-73
2022/07/14 08:30:08;;;;;;;7.43;2.10;;;;;;;26.48;74.57;101956.88;5267975;28;20481;-72
2022/07/14 08:32:58;;;;;;;9.20;2.10;;;;;;;25.37;72.84;101956.88;5263257;28;20027;-72
2022/07/14 08:35:28;;;;;;;9.70;1.95;;;;;;;25.03;76.46;101952.97;5257242;28;20024;-72
2022/07/14 08:37:59;;;;;;;8.50;1.80;;;;;;;24.88;77.42;101963.56;5259875;28;20443;-72
2022/07/14 08:40:30;;;;;;;8.45;2.08;;;;;;;24.87;80.79;101962.75;5258557;28;20027;-72
2022/07/14 08:43:01;;;;;;;12.50;2.40;;;;;;;25.23;82.75;101960.94;5258546;28;20418;-73
2022/07/14 08:45:42;;;;;;;8.57;1.85;;;;;;;24.98;80.48;101961.91;5251285;28;20029;-72
2022/07/14 08:48:14;;;;;;;10.02;2.03;;;;;;;24.88;83.17;101960.81;5255786;28;20066;-72
2022/07/14 08:50:45;;;;;;;8.80;2.17;;;;;;;25.00;84.03;101957.06;5272892;28;20024;-72
2022/07/14 08:53:17;;;;;;;9.65;2.47;;;;;;;25.20;84.41;101954.00;5272514;28;20020;-72
2022/07/14 08:55:48;;;;;;;12.05;1.90;;;;;;;25.35;75.51;101964.50;5267553;28;20529;-72
2022/07/14 08:58:19;;;;;;;9.48;1.75;;;;;;;25.41;74.72;101965.50;5251654;28;20115;-72
2022/07/14 09:00:50;;;;;;;12.15;2.15;;;;;;;25.13;78.68;101966.16;5248385;28;20048;-72
2022/07/14 09:03:21;;;;;;;10.27;2.38;;;;;;;25.73;78.69;101971.44;5239968;28;20108;-72
2022/07/14 09:05:53;;;;;;;11.63;2.50;;;;;;;26.52;74.26;101961.63;5246400;28;20119;-72
2022/07/14 09:08:23;;;;;;;12.02;2.80;;;;;;;26.92;76.01;101977.22;5258438;28;20032;-72
2022/07/14 09:10:54;;;;;;;7.20;2.53;;;;;;;27.02;72.21;101974.66;5266416;28;20515;-72
2022/07/14 09:13:24;;;;;;;12.65;2.95;;;;;;;27.08;66.15;101970.94;5268952;28;20028;-72
2022/07/14 09:16:15;;;;;;;9.93;2.67;;;;;;;27.00;69.22;101976.81;5268808;28;20020;-72
2022/07/14 09:19:06;;;;;;;10.05;2.63;;;;;;;26.95;77.29;101965.69;5253017;28;20466;-72
2022/07/14 09:21:39;;;;;;;16.30;2.83;;;;;;;26.78;75.50;101965.69;5247897;28;20062;-72
2022/07/14 09:24:11;;;;;;;11.37;2.47;;;;;;;26.19;77.60;101958.72;5261286;28;20122;-72
2022/07/14 09:26:46;;;;;;;11.75;2.70;;;;;;;26.72;76.43;101958.44;5247826;28;20064;-72
2022/07/14 09:29:18;;;;;;;;;;;;;;;27.20;77.45;101962.56;5248002;28;20090;-72
2022/07/14 09:31:49;;;;;;;10.10;2.20;;;;;;;27.77;73.42;101965.16;5248101;28;20373;-72
2022/07/14 09:34:33;;;;;;;11.18;2.63;;;;;;;28.05;67.17;101966.03;5247933;28;20032;-72
2022/07/14 09:37:16;;;;;;;12.15;3.08;;;;;;;27.91;68.02;101956.47;5267288;28;20506;-72
2022/07/14 09:40:03;;;;;;;11.25;2.78;;;;;;;28.29;71.12;101958.34;5268758;28;20561;-72
2022/07/14 09:42:53;;;;;;;17.15;3.08;;;;;;;28.62;67.70;101954.63;5268521;28;20028;-72
2022/07/14 09:45:27;;;;;;;11.73;3.30;;;;;;;28.31;62.36;101962.50;5241937;28;20481;-72
2022/07/14 09:48:00;;;;;;;16.63;2.83;;;;;;;28.24;61.77;101961.03;5252449;28;20078;-72
2022/07/14 09:50:48;;;;;;;7.55;2.10;;;;;;;28.27;63.38;101964.13;5247532;28;20436;-72
2022/07/14 09:53:37;;;;;;;11.90;2.55;;;;;;;28.57;64.59;101963.69;5260974;28;20064;-73
2022/07/14 09:56:09;;;;;;;10.65;2.42;;;;;;;29.08;59.67;101955.91;5246591;28;20029;-72
2022/07/14 09:58:44;;;;;;;4.75;1.70;;;;;;;29.20;54.35;101957.63;5247256;28;20111;-72
2022/07/14 10:01:18;;;;;;;9.93;2.25;;;;;;;28.60;57.44;101963.13;5265459;28;20458;-73
2022/07/14 10:03:53;;;;;;;12.88;2.45;;;;;;;28.12;60.45;101956.50;5242494;28;20031;-73
2022/07/14 10:06:27;;;;;;;9.57;1.90;;;;;;;27.76;65.32;101962.63;5253480;28;20377;-73
2022/07/14 10:08:59;;;;;;;9.27;1.90;;;;;;;28.04;63.30;101965.22;5266981;28;20485;-73
2022/07/14 10:11:29;;;;;;;11.73;2.65;;;;;;;28.47;63.75;101966.31;5255537;28;20492;-73
2022/07/14 10:14:01;;;;;;;8.82;2.28;;;;;;;28.58;56.48;101962.56;5251637;28;20032;-73
2022/07/14 10:16:33;;;;;;;7.75;1.80;;;;;;;28.86;57.39;101957.88;5257780;28;20027;-73
2022/07/14 10:19:04;;;;;;;5.85;1.30;;;;;;;29.31;51.44;101962.13;5269119;28;20091;-73
2022/07/14 10:21:36;;;;;;;5.30;1.85;;;;;;;30.01;45.17;101969.22;5264036;28;20021;-73
2022/07/14 10:24:08;;;;;;;7.85;1.75;;;;;;;29.26;48.23;101964.88;5263910;28;20031;-73
2022/07/14 10:26:38;;;;;;;7.93;1.70;;;;;;;28.46;48.94;101977.59;5251139;28;20077;-73
2022/07/14 10:29:09;;;;;;;4.85;1.30;;;;;;;27.75;50.66;101972.81;5260120;28;20482;-73
2022/07/14 10:32:04;;;;;;;6.35;1.35;;;;;;;27.12;51.00;101984.22;5259684;28;20043;-72
2022/07/14 10:34:53;;;;;;;;;;;;;;;26.59;48.83;101981.56;5257958;28;20023;-72
2022/07/14 10:37:54;;;;;;;6.80;1.50;;;;;;;26.13;52.58;101984.44;5258545;28;19908;-72
2022/07/14 10:40:45;;;;;;;6.13;1.40;;;;;;;25.85;54.67;101985.19;5265381;28;20046;-73
2022/07/14 10:43:17;;;;;;;4.88;1.50;;;;;;;26.44;55.86;101989.53;5251227;28;20107;-73
2022/07/14 10:45:51;;;;;;;6.22;1.42;;;;;;;27.06;53.38;101988.75;5255900;28;20028;-73
2022/07/14 10:48:36;;;;;;;11.40;1.92;;;;;;;27.41;53.87;101985.81;5253026;28;20536;-72
2022/07/14 10:51:27;;;;;;;7.75;1.77;;;;;;;27.46;51.83;101982.25;5266950;28;20051;-72
2022/07/14 10:54:16;;;;;;;5.72;1.58;;;;;;;27.66;51.21;101990.00;5245977;28;20022;-73
2022/07/14 10:56:47;;;;;;;5.38;1.02;;;;;;;27.57;48.16;101989.63;5252986;28;20035;-73
2022/07/14 10:59:28;;;;;;;5.90;1.40;;;;;;;27.53;44.50;101994.81;5244693;28;20020;-73
2022/07/14 11:02:18;;;;;;;4.68;1.30;;;;;;;26.85;46.60;101996.63;5255926;28;20031;-72
2022/07/14 11:05:02;;;;;;;5.22;1.75;;;;;;;26.35;52.76;102005.53;5231993;28;20490;-72
2022/07/14 11:08:06;;;;;;;13.07;1.88;;;;;;;26.08;54.67;101998.94;5245776;28;20073;-73
2022/07/14 11:10:37;;;;;;;7.43;1.73;;;;;;;26.28;56.37;101993.84;5260954;28;20096;-72
2022/07/14 11:13:10;;;;;;;5.85;1.67;;;;;;;26.44;57.13;102000.53;5266420;28;20491;-73
2022/07/14 11:15:44;;;;;;;7.18;2.08;;;;;;;26.74;54.60;101988.44;5249628;28;20469;-73
2022/07/14 11:18:17;;;;;;;5.00;1.40;;;;;;;26.97;56.71;101985.59;5245859;28;20470;-73
2022/07/14 11:21:06;;;;;;;8.52;2.53;;;;;;;27.19;54.39;101980.19;5251315;28;20405;-73
2022/07/14 11:23:52;;;;;;;14.63;1.80;;;;;;;27.18;51.32;101991.47;5244551;28;20025;-73
2022/07/14 11:26:37;;;;;;;2.97;1.40;;;;;;;26.72;50.61;101985.13;5245357;28;20493;-73
2022/07/14 11:29:09;;;;;;;7.80;2.47;;;;;;;26.15;55.63;101991.38;5258995;28;20108;-72
2022/07/14 11:31:55;;;;;;;8.65;1.98;;;;;;;26.14;57.23;101988.88;5245386;28;20077;-72
2022/07/14 11:37:19;;;;;;;4.53;1.60;;;;;;;26.90;60.00;101986.81;5232181;28;20048;-73
2022/07/14 11:39:49;;;;;;;6.30;2.13;;;;;;;27.17;53.97;101985.13;5246973;28;20103;-73
2022/07/14 11:42:20;;;;;;;5.70;1.73;;;;;;;27.27;53.16;101993.56;5266363;28;20111;-73
2022/07/14 11:44:53;;;;;;;8.25;1.63;;;;;;;27.27;54.95;101977.03;5265645;28;20031;-73
2022/07/14 11:47:28;;;;;;;5.95;1.88;;;;;;;27.33;56.70;101984.28;5255897;28;20032;-73
2022/07/14 11:50:00;;;;;;;9.15;2.05;;;;;;;27.12;55.68;101979.53;5250268;28;20388;-72
2022/07/14 11:52:33;;;;;;;6.50;1.70;;;;;;;27.29;57.09;101980.34;5264960;28;20058;-73